createdAt,value
2022-11-09T00:01:30.988Z,7.95
2022-11-09T00:04:04.212Z,7.95
2022-11-09T00:06:34.620Z,7.93
2022-11-09T00:09:08.085Z,7.92
2022-11-09T00:11:38.178Z,7.88
2022-11-09T00:14:07.127Z,7.85
2022-11-09T00:16:36.579Z,7.83
2022-11-09T00:19:05.686Z,7.81
2022-11-09T00:21:37.820Z,7.82
2022-11-09T00:24:07.031Z,7.82
2022-11-09T00:26:35.922Z,7.83
2022-11-09T00:29:05.001Z,7.84
2022-11-09T00:31:35.489Z,7.86
2022-11-09T00:34:04.503Z,7.86
2022-11-09T00:36:33.428Z,7.85
2022-11-09T00:39:02.323Z,7.81
2022-11-09T00:41:31.456Z,7.76
2022-11-09T00:44:00.392Z,7.70
2022-11-09T00:46:29.584Z,7.68
2022-11-09T00:48:58.916Z,7.63
2022-11-09T00:51:27.962Z,7.59
2022-11-09T00:53:58.568Z,7.56
2022-11-09T00:56:27.625Z,7.55
2022-11-09T00:58:56.691Z,7.55
2022-11-09T01:01:25.814Z,7.52
2022-11-09T01:03:54.912Z,7.46
2022-11-09T01:06:26.656Z,7.42
2022-11-09T01:08:55.628Z,7.40
2022-11-09T01:11:24.762Z,7.35
2022-11-09T01:14:00.186Z,7.31
2022-11-09T01:16:30.676Z,7.21
2022-11-09T01:19:00.682Z,7.22
2022-11-09T01:21:29.686Z,7.26
2022-11-09T01:24:02.110Z,7.30
2022-11-09T01:26:31.191Z,7.29
2022-11-09T01:29:00.186Z,7.26
2022-11-09T01:31:29.126Z,7.27
2022-11-09T01:33:58.031Z,7.29
2022-11-09T01:36:27.078Z,7.29
2022-11-09T01:38:56.081Z,7.28
2022-11-09T01:41:28.727Z,7.25
2022-11-09T01:44:12.927Z,7.25
2022-11-09T01:46:57.475Z,7.24
2022-11-09T01:49:31.926Z,7.23
2022-11-09T01:52:18.095Z,7.24
2022-11-09T01:54:57.436Z,7.28
2022-11-09T01:57:36.711Z,7.30
2022-11-09T02:00:14.319Z,7.33
2022-11-09T02:02:51.607Z,7.31
2022-11-09T02:05:26.992Z,7.27
2022-11-09T02:07:58.545Z,7.26
2022-11-09T02:10:42.466Z,7.25
2022-11-09T02:13:13.831Z,7.22
2022-11-09T02:15:45.617Z,7.19
2022-11-09T02:18:15.331Z,7.18
2022-11-09T02:20:50.783Z,7.20
2022-11-09T02:23:21.404Z,7.23
2022-11-09T02:26:00.781Z,7.22
2022-11-09T02:28:31.147Z,7.19
2022-11-09T02:31:02.286Z,7.19
2022-11-09T02:34:12.263Z,7.20
2022-11-09T02:36:43.578Z,7.18
2022-11-09T02:39:20.812Z,7.17
2022-11-09T02:42:03.198Z,7.14
2022-11-09T02:44:41.043Z,7.09
2022-11-09T02:47:10.335Z,7.07
2022-11-09T02:49:39.356Z,7.06
2022-11-09T02:52:10.083Z,7.05
2022-11-09T02:54:40.381Z,7.05
2022-11-09T02:57:09.396Z,7.06
2022-11-09T02:59:39.268Z,7.06
2022-11-09T03:02:08.587Z,7.06
2022-11-09T03:04:37.683Z,7.07
2022-11-09T03:07:08.324Z,7.09
2022-11-09T03:09:38.396Z,7.11
2022-11-09T03:12:26.304Z,7.14
2022-11-09T03:15:01.521Z,7.15
2022-11-09T03:17:32.655Z,7.16
2022-11-09T03:20:02.075Z,7.17
2022-11-09T03:22:31.264Z,7.18
2022-11-09T03:25:00.409Z,7.21
2022-11-09T03:27:29.738Z,7.25
2022-11-09T03:29:58.761Z,7.29
2022-11-09T03:32:27.831Z,7.32
2022-11-09T03:34:57.011Z,7.35
2022-11-09T03:37:25.990Z,7.36
2022-11-09T03:39:55.120Z,7.39
2022-11-09T03:42:24.090Z,7.41
2022-11-09T03:44:53.102Z,7.42
2022-11-09T03:47:22.040Z,7.44
2022-11-09T03:49:50.986Z,7.48
2022-11-09T03:52:20.077Z,7.52
2022-11-09T03:54:49.009Z,7.55
2022-11-09T03:57:20.673Z,7.58
2022-11-09T03:59:50.131Z,7.60
2022-11-09T04:02:19.076Z,7.60
2022-11-09T04:04:47.923Z,7.61
2022-11-09T04:07:17.379Z,7.63
2022-11-09T04:09:46.431Z,7.65
2022-11-09T04:12:17.351Z,7.67
2022-11-09T04:14:46.196Z,7.68
2022-11-09T04:17:15.334Z,7.69
2022-11-09T04:19:44.283Z,7.70
2022-11-09T04:22:13.400Z,7.71
2022-11-09T04:24:42.905Z,7.72
2022-11-09T04:27:11.828Z,7.72
2022-11-09T04:29:43.516Z,7.70
2022-11-09T04:32:12.455Z,7.67
2022-11-09T04:34:41.590Z,7.61
2022-11-09T04:37:10.594Z,7.54
2022-11-09T04:39:39.696Z,7.50
2022-11-09T04:42:08.721Z,7.49
2022-11-09T04:44:37.636Z,7.46
2022-11-09T04:47:06.507Z,7.44
2022-11-09T04:49:35.403Z,7.43
2022-11-09T04:52:04.425Z,7.41
2022-11-09T04:54:34.111Z,7.40
2022-11-09T04:57:03.082Z,7.39
2022-11-09T04:59:32.109Z,7.38
2022-11-09T05:02:01.123Z,7.38
2022-11-09T05:04:30.084Z,7.37
2022-11-09T05:06:59.032Z,7.36
2022-11-09T05:09:27.975Z,7.34
2022-11-09T05:11:57.018Z,7.31
2022-11-09T05:14:25.944Z,7.30
2022-11-09T05:16:56.013Z,7.30
2022-11-09T05:19:25.035Z,7.32
2022-11-09T05:21:54.134Z,7.34
2022-11-09T05:24:23.041Z,7.37
2022-11-09T05:26:53.738Z,7.36
2022-11-09T05:29:22.731Z,7.34
2022-11-09T05:31:52.568Z,7.32
2022-11-09T05:34:21.645Z,7.31
2022-11-09T05:36:50.601Z,7.30
2022-11-09T05:39:19.642Z,7.28
2022-11-09T05:41:48.603Z,7.29
2022-11-09T05:44:17.503Z,7.30
2022-11-09T05:46:46.402Z,7.32
2022-11-09T05:49:15.445Z,7.34
2022-11-09T05:51:44.460Z,7.36
2022-11-09T05:54:13.381Z,7.38
2022-11-09T05:56:42.405Z,7.40
2022-11-09T05:59:11.464Z,7.45
2022-11-09T06:01:40.686Z,7.49
2022-11-09T06:04:09.961Z,7.52
2022-11-09T06:06:38.946Z,7.56
2022-11-09T06:09:10.549Z,7.61
2022-11-09T06:11:41.248Z,7.64
2022-11-09T06:14:10.326Z,7.66
2022-11-09T06:16:39.195Z,7.69
2022-11-09T06:19:08.203Z,7.72
2022-11-09T06:21:37.233Z,7.75
2022-11-09T06:24:06.669Z,7.78
2022-11-09T06:26:35.943Z,7.83
2022-11-09T06:29:05.903Z,7.86
2022-11-09T06:31:34.946Z,7.91
2022-11-09T06:34:04.281Z,7.95
2022-11-09T06:36:33.277Z,8.00
2022-11-09T06:39:02.216Z,8.02
2022-11-09T06:41:31.185Z,8.04
2022-11-09T06:44:00.179Z,8.04
2022-11-09T06:46:31.847Z,8.05
2022-11-09T06:49:01.235Z,8.08
2022-11-09T06:51:30.219Z,8.11
2022-11-09T06:53:59.202Z,8.13
2022-11-09T06:56:28.156Z,8.15
2022-11-09T06:58:57.123Z,8.19
2022-11-09T07:01:29.486Z,8.23
2022-11-09T07:03:58.456Z,8.25
2022-11-09T07:06:27.458Z,8.30
2022-11-09T07:08:56.842Z,8.34
2022-11-09T07:11:25.763Z,8.36
2022-11-09T07:13:57.381Z,8.37
2022-11-09T07:16:27.016Z,8.38
2022-11-09T07:18:55.955Z,8.39
2022-11-09T07:21:25.348Z,8.42
2022-11-09T07:23:54.379Z,8.47
2022-11-09T07:26:23.324Z,8.51
2022-11-09T07:28:52.327Z,8.55
2022-11-09T07:31:21.449Z,8.58
2022-11-09T07:33:50.902Z,8.68
2022-11-09T07:36:21.711Z,8.77
2022-11-09T07:38:51.032Z,8.84
2022-11-09T07:41:20.029Z,8.88
2022-11-09T07:43:48.974Z,8.94
2022-11-09T07:46:18.031Z,9.02
2022-11-09T07:48:47.014Z,9.12
2022-11-09T07:51:15.945Z,9.24
2022-11-09T07:53:44.981Z,9.39
2022-11-09T07:56:14.042Z,9.55
2022-11-09T07:58:43.037Z,9.69
2022-11-09T08:01:12.592Z,9.85
2022-11-09T08:03:41.959Z,10.02
2022-11-09T08:06:15.628Z,10.23
2022-11-09T08:08:48.048Z,10.44
2022-11-09T08:11:17.093Z,10.64
2022-11-09T08:13:46.219Z,10.79
2022-11-09T08:16:15.398Z,10.93
2022-11-09T08:18:45.088Z,11.07
2022-11-09T08:21:14.304Z,11.18
2022-11-09T08:23:43.329Z,11.28
2022-11-09T08:26:12.850Z,11.40
2022-11-09T08:28:42.087Z,11.55
2022-11-09T08:31:11.077Z,11.70
2022-11-09T08:33:42.438Z,11.86
2022-11-09T08:36:14.735Z,12.01
2022-11-09T08:38:45.596Z,12.14
2022-11-09T08:41:14.754Z,12.27
2022-11-09T08:43:43.720Z,12.39
2022-11-09T08:46:12.726Z,12.46
2022-11-09T08:48:41.708Z,12.52
2022-11-09T08:51:10.681Z,12.60
2022-11-09T08:53:39.591Z,12.66
2022-11-09T08:56:09.805Z,12.68
2022-11-09T08:58:39.566Z,12.71
2022-11-09T09:01:13.912Z,12.81
2022-11-09T09:03:46.935Z,12.92
2022-11-09T09:06:16.052Z,13.07
2022-11-09T09:08:44.999Z,13.17
2022-11-09T09:11:14.001Z,13.25
2022-11-09T09:13:43.713Z,13.28
2022-11-09T09:16:15.731Z,13.26
2022-11-09T09:18:47.622Z,13.25
2022-11-09T09:21:16.939Z,13.24
2022-11-09T09:23:50.896Z,13.24
2022-11-09T09:26:19.929Z,13.32
2022-11-09T09:28:48.902Z,13.44
2022-11-09T09:31:18.844Z,13.59
2022-11-09T09:33:48.249Z,13.77
2022-11-09T09:36:20.679Z,13.93
2022-11-09T09:38:54.725Z,14.08
2022-11-09T09:41:35.689Z,14.21
2022-11-09T09:44:24.209Z,14.36
2022-11-09T09:47:20.212Z,14.51
2022-11-09T09:50:10.384Z,14.63
2022-11-09T09:53:04.594Z,14.57
2022-11-09T09:55:43.108Z,14.50
2022-11-09T09:58:19.647Z,14.49
2022-11-09T10:00:56.058Z,14.52
2022-11-09T10:03:25.148Z,14.53
2022-11-09T10:06:38.133Z,14.51
2022-11-09T10:09:39.944Z,14.45
2022-11-09T10:12:29.760Z,14.34
2022-11-09T10:15:33.260Z,14.28
2022-11-09T10:18:37.479Z,14.19
2022-11-09T10:21:27.875Z,14.19
2022-11-09T10:24:27.278Z,14.11
2022-11-09T10:26:59.157Z,14.05
2022-11-09T10:29:49.077Z,14.10
2022-11-09T10:32:21.444Z,14.10
2022-11-09T10:35:12.050Z,14.12
2022-11-09T10:37:46.562Z,14.09
2022-11-09T10:40:32.122Z,14.08
2022-11-09T10:43:19.808Z,14.04
2022-11-09T10:46:09.074Z,14.00
2022-11-09T10:48:56.681Z,13.99
2022-11-09T10:51:48.416Z,13.96
2022-11-09T10:54:38.225Z,13.91
2022-11-09T10:57:26.040Z,13.84
2022-11-09T11:00:21.982Z,13.74
2022-11-09T11:03:18.480Z,13.71
2022-11-09T11:06:19.565Z,13.68
2022-11-09T11:09:06.997Z,13.71
2022-11-09T11:12:20.340Z,13.75
2022-11-09T11:15:30.026Z,13.77
2022-11-09T11:18:24.975Z,13.77
2022-11-09T11:21:25.521Z,13.77
2022-11-09T11:24:20.918Z,13.76
2022-11-09T11:27:39.620Z,13.75
2022-11-09T11:30:35.185Z,13.80
2022-11-09T11:33:22.987Z,13.87
2022-11-09T11:36:43.234Z,13.91
2022-11-09T11:39:52.638Z,13.95
2022-11-09T11:43:10.110Z,14.05
2022-11-09T11:46:38.807Z,14.15
2022-11-09T11:49:35.035Z,14.13
2022-11-09T11:52:38.048Z,14.10
2022-11-09T11:55:43.668Z,13.99
2022-11-09T11:58:33.537Z,13.94
2022-11-09T12:01:47.967Z,13.89
2022-11-09T12:05:19.066Z,13.83
2022-11-09T12:09:03.653Z,13.88
2022-11-09T12:12:25.699Z,13.98
2022-11-09T12:16:04.071Z,14.05
2022-11-09T12:19:22.574Z,14.06
2022-11-09T12:23:33.738Z,14.02
2022-11-09T12:27:04.714Z,13.94
2022-11-09T12:30:09.750Z,13.96
2022-11-09T12:33:07.957Z,14.02
2022-11-09T12:36:10.485Z,14.04
2022-11-09T12:39:16.219Z,14.00
2022-11-09T12:42:21.896Z,13.98
2022-11-09T12:45:25.070Z,13.92
2022-11-09T12:48:30.692Z,13.87
2022-11-09T12:51:19.820Z,13.81
2022-11-09T12:54:11.912Z,13.80
2022-11-09T12:57:10.398Z,13.80
2022-11-09T13:00:01.295Z,13.81
2022-11-09T13:02:57.106Z,13.80
2022-11-09T13:05:47.697Z,13.79
2022-11-09T13:08:36.032Z,13.77
2022-11-09T13:11:51.776Z,13.77
2022-11-09T13:14:39.600Z,13.71
2022-11-09T13:17:27.396Z,13.66
2022-11-09T13:24:04.466Z,13.49
2022-11-09T13:26:59.975Z,13.42
2022-11-09T13:29:56.327Z,13.37
2022-11-09T13:33:06.266Z,13.32
2022-11-09T13:36:09.775Z,13.32
2022-11-09T13:39:38.171Z,13.34
2022-11-09T13:42:36.808Z,13.30
2022-11-09T13:45:30.556Z,13.34
2022-11-09T13:48:48.585Z,13.39
2022-11-09T13:51:36.295Z,13.45
2022-11-09T13:54:44.537Z,13.43
2022-11-09T13:57:33.100Z,13.44
2022-11-09T14:00:26.280Z,13.48
2022-11-09T14:03:24.490Z,13.54
2022-11-09T14:06:15.656Z,13.59
2022-11-09T14:09:03.798Z,13.62
2022-11-09T14:12:24.026Z,13.65
2022-11-09T14:15:47.355Z,13.61
2022-11-09T14:18:48.449Z,13.55
2022-11-09T14:21:54.136Z,13.49
2022-11-09T14:24:46.501Z,13.43
2022-11-09T14:27:35.263Z,13.40
2022-11-09T14:30:26.762Z,13.28
2022-11-09T14:33:36.940Z,13.25
2022-11-09T14:36:27.411Z,13.22
2022-11-09T14:39:34.125Z,13.21
2022-11-09T14:42:26.544Z,13.18
2022-11-09T14:45:18.868Z,13.16
2022-11-09T14:48:08.535Z,13.11
2022-11-09T14:51:07.184Z,13.06
2022-11-09T14:53:56.434Z,13.03
2022-11-09T14:56:45.736Z,12.99
2022-11-09T14:59:36.258Z,12.98
2022-11-09T15:02:30.060Z,12.96
2022-11-09T15:05:38.081Z,12.89
2022-11-09T15:08:29.064Z,12.81
2022-11-09T15:11:34.634Z,12.75
2022-11-09T15:14:33.953Z,12.69
2022-11-09T15:17:36.044Z,12.65
2022-11-09T15:20:34.535Z,12.59
2022-11-09T15:23:43.232Z,12.56
2022-11-09T15:26:42.092Z,12.53
2022-11-09T15:29:39.450Z,12.51
2022-11-09T15:32:40.625Z,12.52
2022-11-09T15:35:32.423Z,12.51
2022-11-09T15:38:44.960Z,12.49
2022-11-09T15:41:32.454Z,12.43
2022-11-09T15:44:21.106Z,12.32
2022-11-09T15:47:27.901Z,12.32
2022-11-09T15:50:28.987Z,12.28
2022-11-09T15:53:16.985Z,12.21
2022-11-09T15:56:09.924Z,12.15
2022-11-09T15:58:57.852Z,12.12
2022-11-09T16:01:51.232Z,12.11
2022-11-09T16:04:39.818Z,12.10
2022-11-09T16:07:43.139Z,12.09
2022-11-09T16:10:31.186Z,12.08
2022-11-09T16:13:18.853Z,12.08
2022-11-09T16:16:09.449Z,12.05
2022-11-09T16:18:59.657Z,12.00
2022-11-09T16:21:47.752Z,11.98
2022-11-09T16:24:35.396Z,11.98
2022-11-09T16:27:48.566Z,11.96
2022-11-09T16:30:33.964Z,11.89
2022-11-09T16:33:22.727Z,11.85
2022-11-09T16:36:23.182Z,11.81
2022-11-09T16:39:18.340Z,11.78
2022-11-09T16:42:13.251Z,11.78
2022-11-09T16:45:12.594Z,11.80
2022-11-09T16:48:03.931Z,11.82
2022-11-09T16:50:53.798Z,11.81
2022-11-09T16:53:42.254Z,11.78
2022-11-09T16:56:34.733Z,11.68
2022-11-09T16:59:23.571Z,11.62
2022-11-09T17:02:11.014Z,11.63
2022-11-09T17:05:06.842Z,11.64
2022-11-09T17:07:54.397Z,11.63
2022-11-09T17:10:47.193Z,11.62
2022-11-09T17:13:37.177Z,11.60
2022-11-09T17:16:25.623Z,11.60
2022-11-09T17:19:14.771Z,11.57
2022-11-09T17:22:05.080Z,11.54
2022-11-09T17:24:53.091Z,11.48
2022-11-09T17:27:44.572Z,11.42
2022-11-09T17:30:34.073Z,11.39
2022-11-09T17:33:25.868Z,11.36
2022-11-09T17:36:41.563Z,11.34
2022-11-09T17:39:31.459Z,11.29
2022-11-09T17:42:19.126Z,11.24
2022-11-09T17:45:10.482Z,11.13
2022-11-09T17:47:59.538Z,11.03
2022-11-09T17:50:47.557Z,10.97
2022-11-09T17:53:36.493Z,10.91
2022-11-09T17:56:25.844Z,10.87
2022-11-09T17:59:13.912Z,10.85
2022-11-09T18:02:01.979Z,10.82
2022-11-09T18:04:49.623Z,10.81
2022-11-09T18:07:37.576Z,10.79
2022-11-09T18:10:25.184Z,10.76
2022-11-09T18:13:15.536Z,10.72
2022-11-09T18:16:18.843Z,10.70
2022-11-09T18:19:06.904Z,10.68
2022-11-09T18:21:56.375Z,10.65
2022-11-09T18:24:44.903Z,10.59
2022-11-09T18:27:33.336Z,10.52
2022-11-09T18:30:23.775Z,10.44
2022-11-09T18:33:13.859Z,10.39
2022-11-09T18:36:20.321Z,10.38
2022-11-09T18:39:11.246Z,10.37
2022-11-09T18:42:03.470Z,10.23
2022-11-09T18:44:55.292Z,10.17
2022-11-09T18:47:43.463Z,10.18
2022-11-09T18:50:35.504Z,10.16
2022-11-09T18:53:29.649Z,10.11
2022-11-09T18:56:26.284Z,10.08
2022-11-09T18:59:18.755Z,10.01
2022-11-09T19:02:37.047Z,9.95
2022-11-09T19:05:27.796Z,9.89
2022-11-09T19:08:39.768Z,9.88
2022-11-09T19:11:35.481Z,9.77
2022-11-09T19:14:28.905Z,9.79
2022-11-09T19:17:23.453Z,9.83
2022-11-09T19:20:18.558Z,9.83
2022-11-09T19:23:15.791Z,9.79
2022-11-09T19:26:32.440Z,9.76
2022-11-09T19:29:22.843Z,9.70
2022-11-09T19:32:17.117Z,9.64
2022-11-09T19:35:08.157Z,9.58
2022-11-09T19:46:48.955Z,9.44
2022-11-09T19:49:39.214Z,9.50
2022-11-09T19:52:30.879Z,9.54
2022-11-09T19:55:32.915Z,9.60
2022-11-09T19:58:30.100Z,9.66
2022-11-09T20:01:36.273Z,9.67
2022-11-09T20:04:40.838Z,9.68
2022-11-09T20:07:40.351Z,9.69
2022-11-09T20:10:32.683Z,9.68
2022-11-09T20:14:03.609Z,9.68
2022-11-09T20:17:15.542Z,9.61
2022-11-09T20:20:10.246Z,9.54
2022-11-09T20:23:11.496Z,9.52
2022-11-09T20:26:13.131Z,9.54
2022-11-09T20:29:10.291Z,9.59
2022-11-09T20:32:03.378Z,9.62
2022-11-09T20:35:10.190Z,9.62
2022-11-09T20:38:02.426Z,9.61
2022-11-09T20:41:01.310Z,9.55
2022-11-09T20:43:49.276Z,9.50
2022-11-09T20:46:48.444Z,9.49
2022-11-09T20:49:39.200Z,9.45
2022-11-09T20:52:34.066Z,9.46
2022-11-09T20:55:23.470Z,9.49
2022-11-09T20:58:27.482Z,9.50
2022-11-09T21:01:22.772Z,9.52
2022-11-09T21:04:14.987Z,9.58
2022-11-09T21:08:40.578Z,9.62
2022-11-09T21:10:17.290Z,9.63
2022-11-09T21:16:27.263Z,9.60
2022-11-09T21:22:55.503Z,9.50
2022-11-09T21:26:07.411Z,9.49
2022-11-09T21:29:30.883Z,9.48
2022-11-09T21:35:30.397Z,9.54
2022-11-09T21:38:33.565Z,9.56
2022-11-09T21:41:39.795Z,9.55
2022-11-09T21:44:31.740Z,9.56
2022-11-09T21:47:19.765Z,9.55
2022-11-09T21:50:12.503Z,9.56
2022-11-09T21:53:05.535Z,9.52
2022-11-09T21:55:58.204Z,9.51
2022-11-09T21:58:48.677Z,9.50
2022-11-09T22:01:36.663Z,9.51
2022-11-09T22:04:24.540Z,9.51
2022-11-09T22:07:12.514Z,9.43
2022-11-09T22:10:16.189Z,9.34
2022-11-09T22:13:23.988Z,9.26
2022-11-09T22:16:12.353Z,9.22
2022-11-09T22:19:22.028Z,9.24
2022-11-09T22:22:12.065Z,9.24
2022-11-09T22:24:59.762Z,9.24
2022-11-09T22:27:47.786Z,9.26
2022-11-09T22:30:37.883Z,9.26
2022-11-09T22:33:27.450Z,9.27
2022-11-09T22:36:17.129Z,9.25
2022-11-09T22:39:07.286Z,9.26
2022-11-09T22:41:54.945Z,9.27
2022-11-09T22:44:42.832Z,9.29
2022-11-09T22:47:33.433Z,9.31
2022-11-09T22:50:21.777Z,9.30
2022-11-09T22:53:09.748Z,9.29
2022-11-09T22:56:01.184Z,9.29
2022-11-09T22:58:53.987Z,9.29
2022-11-09T23:01:42.333Z,9.30
2022-11-09T23:04:30.252Z,9.32
2022-11-09T23:07:23.515Z,9.36
2022-11-09T23:10:14.011Z,9.40
2022-11-09T23:13:29.746Z,9.41
2022-11-09T23:16:17.357Z,9.42
2022-11-09T23:19:10.106Z,9.42
2022-11-09T23:22:02.699Z,9.42
2022-11-09T23:25:09.194Z,9.43
2022-11-09T23:27:59.217Z,9.45
2022-11-09T23:30:47.175Z,9.46
2022-11-09T23:33:37.042Z,9.48
2022-11-09T23:36:29.214Z,9.48
2022-11-09T23:39:17.967Z,9.47
2022-11-09T23:42:05.898Z,9.45
2022-11-09T23:44:55.530Z,9.45
2022-11-09T23:47:46.684Z,9.43
2022-11-09T23:50:57.079Z,9.39
2022-11-09T23:53:59.590Z,9.36
2022-11-09T23:57:08.214Z,9.35
2022-11-09T23:59:56.862Z,9.34
